createdAt,value
2023-02-13T01:15:50.559Z,4.15
2023-02-13T07:15:09.280Z,6.88
2023-02-13T07:17:36.336Z,8.30
2023-02-13T07:20:04.701Z,7.70
2023-02-13T07:22:33.053Z,8.10
2023-02-13T07:25:01.127Z,7.50
2023-02-13T07:27:29.433Z,8.32
2023-02-13T07:32:25.620Z,9.30
2023-02-13T07:35:01.733Z,9.43
2023-02-13T07:37:31.232Z,9.95
2023-02-13T07:39:58.204Z,10.40
2023-02-13T07:42:25.240Z,10.23
2023-02-13T07:44:52.211Z,9.30
2023-02-13T07:47:20.322Z,9.25
2023-02-13T07:49:47.397Z,9.35
2023-02-13T07:52:14.320Z,9.90
2023-02-13T07:54:47.441Z,10.23
2023-02-13T08:04:38.312Z,12.50
2023-02-13T08:17:11.171Z,11.73
2023-02-13T08:19:38.475Z,11.13
2023-02-13T16:26:25.658Z,24.00
2023-02-13T16:28:52.879Z,19.75
2023-02-13T16:31:21.164Z,18.80
2023-02-13T16:33:48.482Z,20.10
2023-02-13T16:36:15.326Z,18.02
2023-02-13T16:38:43.852Z,18.70
2023-02-13T16:41:19.687Z,18.42
2023-02-13T16:43:51.957Z,18.00
2023-02-13T16:46:28.191Z,17.30
2023-02-13T16:49:00.736Z,18.88
2023-02-13T16:51:30.445Z,17.90
2023-02-13T16:54:03.779Z,19.38
2023-02-13T16:56:56.990Z,20.00
2023-02-13T16:59:26.087Z,22.45
2023-02-13T17:02:18.101Z,20.45
2023-02-13T17:05:07.767Z,20.92
2023-02-13T17:07:39.290Z,19.98
2023-02-13T17:10:17.861Z,19.23
2023-02-13T17:12:45.810Z,20.13
2023-02-13T17:15:14.446Z,21.02
2023-02-13T17:17:41.431Z,20.88
2023-02-13T17:20:15.027Z,20.08
2023-02-13T17:22:45.448Z,20.80
2023-02-13T17:25:25.224Z,24.27
2023-02-13T17:27:55.230Z,23.67
2023-02-13T17:30:25.495Z,23.30
2023-02-13T17:33:07.432Z,22.67
2023-02-13T17:35:35.496Z,22.55
2023-02-13T17:38:02.595Z,21.45
2023-02-13T17:40:31.787Z,21.23
2023-02-13T17:42:59.487Z,23.13
2023-02-13T17:45:29.194Z,23.77
2023-02-13T17:47:59.759Z,23.17
2023-02-13T17:50:28.601Z,24.80
2023-02-13T17:52:56.162Z,22.30
2023-02-13T17:55:26.033Z,24.65
2023-02-13T17:57:54.500Z,22.70
2023-02-13T18:00:22.261Z,25.05
2023-02-13T18:02:50.767Z,25.05
2023-02-13T18:05:19.097Z,23.02
2023-02-13T18:07:47.091Z,24.83
2023-02-13T18:10:15.468Z,25.95
2023-02-13T18:12:43.255Z,25.55
2023-02-13T18:15:11.243Z,24.15
2023-02-13T18:17:38.363Z,23.38
2023-02-13T18:20:07.455Z,23.35
2023-02-13T18:22:34.414Z,24.40
2023-02-13T18:25:01.870Z,23.88
2023-02-13T18:27:29.503Z,25.75
2023-02-13T18:30:03.165Z,22.60
2023-02-13T18:32:30.248Z,23.77
2023-02-13T18:34:57.233Z,24.13
2023-02-13T18:37:24.327Z,25.10
2023-02-13T18:39:51.304Z,23.13
2023-02-13T18:42:18.823Z,24.75
2023-02-13T18:44:45.764Z,24.52
2023-02-13T18:47:12.672Z,24.30
2023-02-13T18:49:39.956Z,24.08
2023-02-13T18:52:06.885Z,24.27
2023-02-13T18:54:33.760Z,24.73
2023-02-13T18:57:00.685Z,25.08
2023-02-13T18:59:27.971Z,25.25
2023-02-13T19:01:54.895Z,25.17
2023-02-13T19:04:21.962Z,24.85
2023-02-13T19:06:49.359Z,26.23
2023-02-13T19:09:16.350Z,24.70
2023-02-13T19:24:04.122Z,24.45
2023-02-13T19:26:31.217Z,23.20
2023-02-13T19:28:58.580Z,23.33
2023-02-13T19:31:28.541Z,22.85
2023-02-13T19:33:55.993Z,24.67
2023-02-13T19:36:25.523Z,22.77
2023-02-13T19:38:57.748Z,24.80
2023-02-13T19:41:25.206Z,24.77
2023-02-13T19:43:53.733Z,23.65
2023-02-13T19:46:26.080Z,22.65
2023-02-13T19:48:53.789Z,23.77
2023-02-13T19:51:25.600Z,24.10
2023-02-13T19:54:01.135Z,25.48
2023-02-13T19:56:30.150Z,25.42
2023-02-13T19:58:57.353Z,26.27
2023-02-13T20:01:25.976Z,25.08
2023-02-13T20:03:53.617Z,25.55
2023-02-13T20:06:30.023Z,25.92
2023-02-13T20:08:59.913Z,25.17
2023-02-13T20:11:26.932Z,24.33
2023-02-13T20:13:59.707Z,26.05
2023-02-13T20:16:27.431Z,25.83
2023-02-13T20:18:54.582Z,24.88
2023-02-13T20:21:21.699Z,26.33
2023-02-13T20:23:51.237Z,25.17
2023-02-13T20:26:19.198Z,25.25
2023-02-13T20:28:46.769Z,27.17
2023-02-13T20:31:17.348Z,24.33
2023-02-13T20:33:46.566Z,23.88
2023-02-13T20:36:13.468Z,24.95
2023-02-13T20:38:40.957Z,23.63
2023-02-13T20:41:12.650Z,23.83
2023-02-13T20:43:39.661Z,23.48
2023-02-13T20:46:07.622Z,26.23
2023-02-13T20:51:04.842Z,23.73
2023-02-13T20:53:32.411Z,23.80
2023-02-13T20:56:08.175Z,21.75
2023-02-13T20:58:35.201Z,23.70
2023-02-13T21:01:03.108Z,24.55
2023-02-13T21:03:30.447Z,26.40
2023-02-13T21:05:57.553Z,25.53
2023-02-13T21:08:24.540Z,22.77
2023-02-13T21:10:52.284Z,22.85
2023-02-13T21:13:19.219Z,23.05
2023-02-13T21:18:16.160Z,23.85
2023-02-13T21:20:43.060Z,23.52
2023-02-13T21:23:09.999Z,23.80
2023-02-13T21:25:36.908Z,23.08
2023-02-13T21:28:03.958Z,22.25
2023-02-13T21:30:30.908Z,21.65
2023-02-13T21:32:57.904Z,22.08
2023-02-13T21:35:24.994Z,22.58
2023-02-13T21:37:52.008Z,21.17
2023-02-13T21:40:20.065Z,22.50
2023-02-13T21:42:46.960Z,28.75
2023-02-13T21:45:14.742Z,25.77
2023-02-13T21:47:41.619Z,21.98
2023-02-13T21:50:08.895Z,22.73
2023-02-13T21:52:35.935Z,22.70
2023-02-13T21:55:03.651Z,21.27
2023-02-13T21:57:30.902Z,23.10
2023-02-13T21:59:57.829Z,20.35
2023-02-13T22:02:26.995Z,22.00
2023-02-13T22:04:53.945Z,21.58
2023-02-13T22:07:20.876Z,24.55
2023-02-13T22:09:50.081Z,20.92
2023-02-13T22:12:16.977Z,21.67
2023-02-13T22:14:43.906Z,22.13
2023-02-13T22:17:10.920Z,19.88
2023-02-13T22:19:37.817Z,20.48
2023-02-13T22:22:04.753Z,21.23
2023-02-13T22:24:32.778Z,19.85
2023-02-13T22:26:59.755Z,18.40
2023-02-13T22:29:27.169Z,18.52
2023-02-13T22:31:54.167Z,19.55
2023-02-13T22:34:21.206Z,19.42
2023-02-13T22:36:48.159Z,21.70
2023-02-13T22:39:15.055Z,19.38
2023-02-13T22:41:44.468Z,20.70
2023-02-13T22:44:11.429Z,21.67
2023-02-13T22:46:38.551Z,20.95
2023-02-13T22:49:05.524Z,21.67
2023-02-13T22:51:35.305Z,18.95
2023-02-13T22:54:03.336Z,18.85
2023-02-13T22:56:31.283Z,18.38
2023-02-13T22:58:58.534Z,18.65
2023-02-13T23:01:26.801Z,18.33
2023-02-13T23:03:54.562Z,19.02
2023-02-13T23:06:21.951Z,19.88
2023-02-13T23:08:52.473Z,22.88
2023-02-13T23:11:40.313Z,20.15
2023-02-13T23:14:07.410Z,20.23
2023-02-13T23:16:54.293Z,19.17
2023-02-13T23:19:21.643Z,19.15
2023-02-13T23:21:48.972Z,19.05
2023-02-13T23:24:16.022Z,18.83
2023-02-13T23:26:42.931Z,20.10
2023-02-13T23:29:09.903Z,15.93
2023-02-13T23:31:36.960Z,17.05
2023-02-13T23:34:04.060Z,17.75
2023-02-13T23:36:30.986Z,16.73
2023-02-13T23:38:57.917Z,16.77
2023-02-13T23:41:24.916Z,16.35
2023-02-13T23:43:51.834Z,15.52
2023-02-13T23:46:18.841Z,15.32
2023-02-13T23:48:46.293Z,16.10
2023-02-13T23:51:13.492Z,17.17
2023-02-13T23:53:40.454Z,18.98
2023-02-13T23:56:07.743Z,19.40
2023-02-13T23:58:35.012Z,18.35
